Carpenter, Wyoming
Current Conditions -  °F | °C
As of 11:15 PM on Tuesday 21 Oct 2014 (Local Time) from K82V Reporting Station
Moderate Rain Moderate Rain  
Wind Chill: 52°   Ceiling: 4200
Heat Index: 52°   Visibility: 7mi
Dew Point: 46°   Wind: 9mph
Humidity: 82%   Direction: 270°W
Pressure: 30.01"   Gusts: NA
Location:  41.05°N, 104.37°W
Report Text: K82V 220515Z AUTO 27008KT 7SM RA SCT027 BKN042 OVC070 11/08 A3001 RMK AO2
Loading
Personal Weather Stations






























Interactive Weather Map
Tropical Storm Tracking
New forecast layout! Learn more

10-Day Weather Forecast

Advertisements
Track Severe Weather on mobile